sensor_id;sensor_type;location;lat;lon;timestamp;P1;durP1;ratioP1;P2;durP2;ratioP2
46561;SDS011;32289;42.688;23.330;2024-02-26T00:00:43;32.75;;;12.95;;
46561;SDS011;32289;42.688;23.330;2024-02-26T00:04:26;27.20;;;13.45;;
46561;SDS011;32289;42.688;23.330;2024-02-26T00:08:07;24.55;;;12.75;;
46561;SDS011;32289;42.688;23.330;2024-02-26T00:11:48;37.38;;;12.82;;
46561;SDS011;32289;42.688;23.330;2024-02-26T00:15:28;31.17;;;14.70;;
46561;SDS011;32289;42.688;23.330;2024-02-26T00:19:09;29.73;;;12.63;;
46561;SDS011;32289;42.688;23.330;2024-02-26T00:22:50;27.25;;;13.25;;
46561;SDS011;32289;42.688;23.330;2024-02-26T00:26:30;27.33;;;13.23;;
46561;SDS011;32289;42.688;23.330;2024-02-26T00:30:11;28.20;;;14.77;;
46561;SDS011;32289;42.688;23.330;2024-02-26T00:33:56;30.63;;;13.38;;
46561;SDS011;32289;42.688;23.330;2024-02-26T00:37:37;33.33;;;12.13;;
46561;SDS011;32289;42.688;23.330;2024-02-26T00:41:18;26.67;;;12.45;;
46561;SDS011;32289;42.688;23.330;2024-02-26T00:44:59;26.98;;;13.27;;
46561;SDS011;32289;42.688;23.330;2024-02-26T00:48:41;38.60;;;15.30;;
46561;SDS011;32289;42.688;23.330;2024-02-26T00:52:21;31.75;;;14.02;;
46561;SDS011;32289;42.688;23.330;2024-02-26T00:56:04;29.23;;;13.60;;
46561;SDS011;32289;42.688;23.330;2024-02-26T00:59:44;25.52;;;13.30;;
46561;SDS011;32289;42.688;23.330;2024-02-26T01:03:25;31.48;;;14.20;;
46561;SDS011;32289;42.688;23.330;2024-02-26T01:07:06;28.60;;;13.93;;
46561;SDS011;32289;42.688;23.330;2024-02-26T01:10:47;31.98;;;14.85;;
46561;SDS011;32289;42.688;23.330;2024-02-26T01:14:28;32.33;;;14.75;;
46561;SDS011;32289;42.688;23.330;2024-02-26T01:18:09;31.67;;;14.50;;
46561;SDS011;32289;42.688;23.330;2024-02-26T01:21:50;39.70;;;16.52;;
46561;SDS011;32289;42.688;23.330;2024-02-26T01:25:31;27.05;;;14.20;;
46561;SDS011;32289;42.688;23.330;2024-02-26T01:29:12;26.95;;;13.55;;
46561;SDS011;32289;42.688;23.330;2024-02-26T01:32:52;30.30;;;14.43;;
46561;SDS011;32289;42.688;23.330;2024-02-26T01:36:33;28.15;;;14.23;;
46561;SDS011;32289;42.688;23.330;2024-02-26T01:40:14;29.45;;;13.98;;
46561;SDS011;32289;42.688;23.330;2024-02-26T01:43:59;30.88;;;15.80;;
46561;SDS011;32289;42.688;23.330;2024-02-26T01:47:40;35.63;;;14.93;;
46561;SDS011;32289;42.688;23.330;2024-02-26T01:51:21;32.05;;;14.98;;
46561;SDS011;32289;42.688;23.330;2024-02-26T01:55:02;31.02;;;14.30;;
46561;SDS011;32289;42.688;23.330;2024-02-26T01:58:43;30.33;;;14.57;;
46561;SDS011;32289;42.688;23.330;2024-02-26T02:02:25;35.13;;;14.98;;
46561;SDS011;32289;42.688;23.330;2024-02-26T02:06:06;32.17;;;14.60;;
46561;SDS011;32289;42.688;23.330;2024-02-26T02:09:47;27.45;;;15.20;;
46561;SDS011;32289;42.688;23.330;2024-02-26T02:13:28;35.58;;;16.58;;
46561;SDS011;32289;42.688;23.330;2024-02-26T02:17:09;29.40;;;14.77;;
46561;SDS011;32289;42.688;23.330;2024-02-26T02:20:50;26.48;;;13.90;;
46561;SDS011;32289;42.688;23.330;2024-02-26T02:24:30;32.33;;;15.50;;
46561;SDS011;32289;42.688;23.330;2024-02-26T02:28:11;31.20;;;14.68;;
46561;SDS011;32289;42.688;23.330;2024-02-26T02:31:52;25.05;;;14.77;;
46561;SDS011;32289;42.688;23.330;2024-02-26T02:35:33;28.40;;;13.80;;
46561;SDS011;32289;42.688;23.330;2024-02-26T02:39:15;27.52;;;14.20;;
46561;SDS011;32289;42.688;23.330;2024-02-26T02:42:56;29.95;;;13.88;;
46561;SDS011;32289;42.688;23.330;2024-02-26T02:46:37;29.73;;;12.38;;
46561;SDS011;32289;42.688;23.330;2024-02-26T02:50:18;30.83;;;15.23;;
46561;SDS011;32289;42.688;23.330;2024-02-26T02:53:58;33.75;;;14.73;;
46561;SDS011;32289;42.688;23.330;2024-02-26T02:57:39;33.63;;;14.60;;
46561;SDS011;32289;42.688;23.330;2024-02-26T03:01:21;36.33;;;15.55;;
46561;SDS011;32289;42.688;23.330;2024-02-26T03:05:05;31.90;;;15.38;;
46561;SDS011;32289;42.688;23.330;2024-02-26T03:08:46;26.73;;;14.20;;
46561;SDS011;32289;42.688;23.330;2024-02-26T03:12:27;30.60;;;14.88;;
46561;SDS011;32289;42.688;23.330;2024-02-26T03:16:08;33.30;;;14.98;;
46561;SDS011;32289;42.688;23.330;2024-02-26T03:19:49;32.38;;;14.07;;
46561;SDS011;32289;42.688;23.330;2024-02-26T03:23:33;36.65;;;15.20;;
46561;SDS011;32289;42.688;23.330;2024-02-26T03:27:16;35.30;;;14.15;;
46561;SDS011;32289;42.688;23.330;2024-02-26T03:30:57;27.40;;;15.07;;
46561;SDS011;32289;42.688;23.330;2024-02-26T03:34:38;28.00;;;14.65;;
46561;SDS011;32289;42.688;23.330;2024-02-26T03:38:20;28.88;;;14.95;;
46561;SDS011;32289;42.688;23.330;2024-02-26T03:42:01;32.08;;;16.10;;
46561;SDS011;32289;42.688;23.330;2024-02-26T03:45:42;30.17;;;14.55;;
46561;SDS011;32289;42.688;23.330;2024-02-26T03:49:23;30.58;;;15.27;;
46561;SDS011;32289;42.688;23.330;2024-02-26T03:53:03;33.58;;;14.52;;
46561;SDS011;32289;42.688;23.330;2024-02-26T03:56:44;29.45;;;14.15;;
46561;SDS011;32289;42.688;23.330;2024-02-26T04:00:25;30.88;;;14.85;;
46561;SDS011;32289;42.688;23.330;2024-02-26T04:04:06;26.25;;;14.40;;
46561;SDS011;32289;42.688;23.330;2024-02-26T04:07:46;28.42;;;13.93;;
46561;SDS011;32289;42.688;23.330;2024-02-26T04:11:27;31.08;;;14.35;;
46561;SDS011;32289;42.688;23.330;2024-02-26T04:15:08;27.90;;;14.50;;
46561;SDS011;32289;42.688;23.330;2024-02-26T04:18:49;33.60;;;15.05;;
46561;SDS011;32289;42.688;23.330;2024-02-26T04:22:30;27.23;;;14.20;;
46561;SDS011;32289;42.688;23.330;2024-02-26T04:26:12;27.92;;;13.55;;
46561;SDS011;32289;42.688;23.330;2024-02-26T04:29:52;29.25;;;14.90;;
46561;SDS011;32289;42.688;23.330;2024-02-26T04:33:36;27.75;;;15.23;;
46561;SDS011;32289;42.688;23.330;2024-02-26T04:37:17;26.70;;;14.48;;
46561;SDS011;32289;42.688;23.330;2024-02-26T04:40:58;24.80;;;13.77;;
46561;SDS011;32289;42.688;23.330;2024-02-26T04:44:38;31.73;;;15.43;;
46561;SDS011;32289;42.688;23.330;2024-02-26T04:48:19;31.48;;;16.60;;
46561;SDS011;32289;42.688;23.330;2024-02-26T04:52:00;34.17;;;16.88;;
46561;SDS011;32289;42.688;23.330;2024-02-26T04:55:40;34.72;;;16.45;;
46561;SDS011;32289;42.688;23.330;2024-02-26T04:59:21;39.42;;;15.25;;
46561;SDS011;32289;42.688;23.330;2024-02-26T05:03:02;37.15;;;16.55;;
46561;SDS011;32289;42.688;23.330;2024-02-26T05:06:42;33.72;;;15.75;;
46561;SDS011;32289;42.688;23.330;2024-02-26T05:10:23;36.42;;;16.73;;
46561;SDS011;32289;42.688;23.330;2024-02-26T05:14:04;29.27;;;14.80;;
46561;SDS011;32289;42.688;23.330;2024-02-26T05:17:44;32.28;;;15.30;;
46561;SDS011;32289;42.688;23.330;2024-02-26T05:21:25;30.75;;;15.52;;
46561;SDS011;32289;42.688;23.330;2024-02-26T05:25:06;39.47;;;16.80;;
46561;SDS011;32289;42.688;23.330;2024-02-26T05:28:47;32.30;;;15.15;;
46561;SDS011;32289;42.688;23.330;2024-02-26T05:32:27;38.92;;;16.88;;
46561;SDS011;32289;42.688;23.330;2024-02-26T05:36:08;33.50;;;16.85;;
46561;SDS011;32289;42.688;23.330;2024-02-26T05:39:49;40.03;;;17.05;;
46561;SDS011;32289;42.688;23.330;2024-02-26T05:43:29;34.00;;;16.85;;
46561;SDS011;32289;42.688;23.330;2024-02-26T05:47:10;36.28;;;16.70;;
46561;SDS011;32289;42.688;23.330;2024-02-26T05:50:51;33.08;;;15.43;;
46561;SDS011;32289;42.688;23.330;2024-02-26T05:54:32;32.53;;;16.20;;
46561;SDS011;32289;42.688;23.330;2024-02-26T05:58:12;31.35;;;15.57;;
46561;SDS011;32289;42.688;23.330;2024-02-26T06:01:54;36.40;;;15.80;;
46561;SDS011;32289;42.688;23.330;2024-02-26T06:05:34;32.83;;;15.93;;
46561;SDS011;32289;42.688;23.330;2024-02-26T06:09:15;31.55;;;15.98;;
46561;SDS011;32289;42.688;23.330;2024-02-26T06:12:56;38.92;;;17.67;;
46561;SDS011;32289;42.688;23.330;2024-02-26T06:16:36;35.22;;;16.00;;
46561;SDS011;32289;42.688;23.330;2024-02-26T06:20:17;33.10;;;15.35;;
46561;SDS011;32289;42.688;23.330;2024-02-26T06:23:58;27.95;;;14.50;;
46561;SDS011;32289;42.688;23.330;2024-02-26T06:27:39;32.17;;;16.00;;
46561;SDS011;32289;42.688;23.330;2024-02-26T06:31:20;35.33;;;16.20;;
46561;SDS011;32289;42.688;23.330;2024-02-26T06:35:03;31.30;;;15.00;;
46561;SDS011;32289;42.688;23.330;2024-02-26T06:38:49;37.17;;;16.33;;
46561;SDS011;32289;42.688;23.330;2024-02-26T06:42:29;32.22;;;16.25;;
46561;SDS011;32289;42.688;23.330;2024-02-26T06:46:10;29.63;;;15.35;;
46561;SDS011;32289;42.688;23.330;2024-02-26T06:49:51;29.38;;;12.73;;
46561;SDS011;32289;42.688;23.330;2024-02-26T06:53:32;28.83;;;14.90;;
46561;SDS011;32289;42.688;23.330;2024-02-26T06:57:13;27.60;;;13.45;;
46561;SDS011;32289;42.688;23.330;2024-02-26T07:00:54;32.53;;;14.63;;
46561;SDS011;32289;42.688;23.330;2024-02-26T07:04:35;29.95;;;14.65;;
46561;SDS011;32289;42.688;23.330;2024-02-26T07:08:17;34.85;;;14.95;;
46561;SDS011;32289;42.688;23.330;2024-02-26T07:11:58;29.35;;;15.73;;
46561;SDS011;32289;42.688;23.330;2024-02-26T07:15:39;25.52;;;13.65;;
46561;SDS011;32289;42.688;23.330;2024-02-26T07:19:19;30.15;;;14.30;;
46561;SDS011;32289;42.688;23.330;2024-02-26T07:23:00;28.10;;;13.00;;
46561;SDS011;32289;42.688;23.330;2024-02-26T07:26:41;26.98;;;12.88;;
46561;SDS011;32289;42.688;23.330;2024-02-26T07:30:21;36.80;;;15.25;;
46561;SDS011;32289;42.688;23.330;2024-02-26T07:34:02;25.92;;;13.77;;
46561;SDS011;32289;42.688;23.330;2024-02-26T07:37:43;29.15;;;13.93;;
46561;SDS011;32289;42.688;23.330;2024-02-26T07:41:24;29.55;;;15.68;;
46561;SDS011;32289;42.688;23.330;2024-02-26T07:45:05;33.47;;;15.68;;
46561;SDS011;32289;42.688;23.330;2024-02-26T07:48:46;39.67;;;15.85;;
46561;SDS011;32289;42.688;23.330;2024-02-26T07:52:27;41.28;;;18.67;;
46561;SDS011;32289;42.688;23.330;2024-02-26T07:56:08;44.25;;;18.00;;
46561;SDS011;32289;42.688;23.330;2024-02-26T07:59:49;36.58;;;18.30;;
46561;SDS011;32289;42.688;23.330;2024-02-26T08:03:30;27.88;;;15.45;;
46561;SDS011;32289;42.688;23.330;2024-02-26T08:07:11;31.13;;;15.57;;
46561;SDS011;32289;42.688;23.330;2024-02-26T08:10:51;36.85;;;17.55;;
46561;SDS011;32289;42.688;23.330;2024-02-26T08:14:32;35.55;;;16.42;;
46561;SDS011;32289;42.688;23.330;2024-02-26T08:18:12;30.88;;;17.48;;
46561;SDS011;32289;42.688;23.330;2024-02-26T08:21:53;35.90;;;15.88;;
46561;SDS011;32289;42.688;23.330;2024-02-26T08:25:34;33.28;;;15.07;;
46561;SDS011;32289;42.688;23.330;2024-02-26T08:29:15;30.88;;;14.65;;
46561;SDS011;32289;42.688;23.330;2024-02-26T08:32:56;24.00;;;12.93;;
46561;SDS011;32289;42.688;23.330;2024-02-26T08:36:36;26.80;;;11.63;;
46561;SDS011;32289;42.688;23.330;2024-02-26T08:40:17;22.30;;;11.80;;
46561;SDS011;32289;42.688;23.330;2024-02-26T08:43:59;22.73;;;11.93;;
46561;SDS011;32289;42.688;23.330;2024-02-26T08:47:40;23.55;;;11.43;;
46561;SDS011;32289;42.688;23.330;2024-02-26T08:51:20;27.70;;;13.40;;
46561;SDS011;32289;42.688;23.330;2024-02-26T08:55:01;26.23;;;11.40;;
46561;SDS011;32289;42.688;23.330;2024-02-26T08:58:43;27.17;;;12.38;;
46561;SDS011;32289;42.688;23.330;2024-02-26T09:02:23;23.90;;;12.95;;
46561;SDS011;32289;42.688;23.330;2024-02-26T09:06:04;23.15;;;13.48;;
46561;SDS011;32289;42.688;23.330;2024-02-26T09:09:46;16.33;;;9.75;;
46561;SDS011;32289;42.688;23.330;2024-02-26T09:13:27;14.30;;;8.20;;
46561;SDS011;32289;42.688;23.330;2024-02-26T09:17:08;15.30;;;8.48;;
46561;SDS011;32289;42.688;23.330;2024-02-26T09:20:48;11.07;;;7.50;;
46561;SDS011;32289;42.688;23.330;2024-02-26T09:24:31;13.43;;;6.35;;
46561;SDS011;32289;42.688;23.330;2024-02-26T09:28:11;18.40;;;6.15;;
46561;SDS011;32289;42.688;23.330;2024-02-26T09:31:52;11.73;;;5.65;;
46561;SDS011;32289;42.688;23.330;2024-02-26T09:35:33;9.13;;;4.70;;
46561;SDS011;32289;42.688;23.330;2024-02-26T09:39:14;7.65;;;4.78;;
46561;SDS011;32289;42.688;23.330;2024-02-26T09:43:00;6.97;;;4.05;;
46561;SDS011;32289;42.688;23.330;2024-02-26T09:46:44;8.98;;;4.78;;
46561;SDS011;32289;42.688;23.330;2024-02-26T09:50:24;12.40;;;5.05;;
46561;SDS011;32289;42.688;23.330;2024-02-26T09:54:05;11.38;;;4.35;;
46561;SDS011;32289;42.688;23.330;2024-02-26T09:57:49;11.07;;;4.05;;
46561;SDS011;32289;42.688;23.330;2024-02-26T10:01:31;7.22;;;3.92;;
46561;SDS011;32289;42.688;23.330;2024-02-26T10:05:15;10.65;;;4.50;;
46561;SDS011;32289;42.688;23.330;2024-02-26T10:09:00;6.88;;;4.15;;
46561;SDS011;32289;42.688;23.330;2024-02-26T10:12:44;7.45;;;3.92;;
46561;SDS011;32289;42.688;23.330;2024-02-26T10:16:25;4.93;;;3.20;;
46561;SDS011;32289;42.688;23.330;2024-02-26T10:20:16;5.05;;;3.47;;
46561;SDS011;32289;42.688;23.330;2024-02-26T10:23:57;7.07;;;3.10;;
46561;SDS011;32289;42.688;23.330;2024-02-26T10:27:39;6.93;;;3.38;;
46561;SDS011;32289;42.688;23.330;2024-02-26T10:31:21;9.93;;;4.07;;
46561;SDS011;32289;42.688;23.330;2024-02-26T10:35:02;6.70;;;4.07;;
46561;SDS011;32289;42.688;23.330;2024-02-26T10:38:48;5.72;;;3.58;;
46561;SDS011;32289;42.688;23.330;2024-02-26T10:42:30;5.22;;;3.53;;
46561;SDS011;32289;42.688;23.330;2024-02-26T10:46:10;5.05;;;3.42;;
46561;SDS011;32289;42.688;23.330;2024-02-26T10:49:51;9.48;;;3.95;;
46561;SDS011;32289;42.688;23.330;2024-02-26T10:53:33;7.10;;;3.90;;
46561;SDS011;32289;42.688;23.330;2024-02-26T10:57:15;6.78;;;3.92;;
46561;SDS011;32289;42.688;23.330;2024-02-26T11:00:58;5.25;;;3.00;;
46561;SDS011;32289;42.688;23.330;2024-02-26T11:04:39;6.97;;;3.58;;
46561;SDS011;32289;42.688;23.330;2024-02-26T11:08:21;6.32;;;3.47;;
46561;SDS011;32289;42.688;23.330;2024-02-26T11:12:04;7.68;;;3.95;;
46561;SDS011;32289;42.688;23.330;2024-02-26T11:15:50;5.68;;;3.95;;
46561;SDS011;32289;42.688;23.330;2024-02-26T11:19:35;8.45;;;3.50;;
46561;SDS011;32289;42.688;23.330;2024-02-26T11:23:18;5.13;;;3.08;;
46561;SDS011;32289;42.688;23.330;2024-02-26T11:27:00;7.50;;;3.33;;
46561;SDS011;32289;42.688;23.330;2024-02-26T11:30:44;5.07;;;3.60;;
46561;SDS011;32289;42.688;23.330;2024-02-26T11:34:27;7.28;;;3.70;;
46561;SDS011;32289;42.688;23.330;2024-02-26T11:38:08;4.97;;;2.90;;
46561;SDS011;32289;42.688;23.330;2024-02-26T11:42:04;8.35;;;3.33;;
46561;SDS011;32289;42.688;23.330;2024-02-26T11:49:32;6.40;;;3.20;;
46561;SDS011;32289;42.688;23.330;2024-02-26T12:05:25;8.18;;;3.25;;
46561;SDS011;32289;42.688;23.330;2024-02-26T12:09:08;5.72;;;3.00;;
46561;SDS011;32289;42.688;23.330;2024-02-26T12:12:49;5.43;;;3.28;;
46561;SDS011;32289;42.688;23.330;2024-02-26T12:20:19;6.70;;;2.85;;
46561;SDS011;32289;42.688;23.330;2024-02-26T12:24:10;8.15;;;3.40;;
46561;SDS011;32289;42.688;23.330;2024-02-26T12:27:55;5.28;;;3.20;;
46561;SDS011;32289;42.688;23.330;2024-02-26T12:31:36;8.75;;;3.28;;
46561;SDS011;32289;42.688;23.330;2024-02-26T12:35:19;5.15;;;2.83;;
46561;SDS011;32289;42.688;23.330;2024-02-26T12:39:00;5.43;;;2.72;;
46561;SDS011;32289;42.688;23.330;2024-02-26T12:42:42;4.65;;;2.85;;
46561;SDS011;32289;42.688;23.330;2024-02-26T12:46:23;8.30;;;3.13;;
46561;SDS011;32289;42.688;23.330;2024-02-26T12:50:04;9.00;;;2.90;;
46561;SDS011;32289;42.688;23.330;2024-02-26T12:53:45;4.80;;;3.05;;
46561;SDS011;32289;42.688;23.330;2024-02-26T12:57:33;6.40;;;3.80;;
46561;SDS011;32289;42.688;23.330;2024-02-26T13:01:16;4.50;;;2.40;;
46561;SDS011;32289;42.688;23.330;2024-02-26T13:05:00;5.28;;;2.60;;
46561;SDS011;32289;42.688;23.330;2024-02-26T13:08:41;5.72;;;3.08;;
46561;SDS011;32289;42.688;23.330;2024-02-26T13:12:22;7.43;;;3.00;;
46561;SDS011;32289;42.688;23.330;2024-02-26T13:16:10;5.97;;;3.00;;
46561;SDS011;32289;42.688;23.330;2024-02-26T13:19:55;6.40;;;3.30;;
46561;SDS011;32289;42.688;23.330;2024-02-26T13:23:36;4.90;;;2.97;;
46561;SDS011;32289;42.688;23.330;2024-02-26T13:27:25;4.85;;;2.80;;
46561;SDS011;32289;42.688;23.330;2024-02-26T13:31:06;6.53;;;2.58;;
46561;SDS011;32289;42.688;23.330;2024-02-26T13:34:48;5.32;;;2.95;;
46561;SDS011;32289;42.688;23.330;2024-02-26T13:38:28;5.35;;;2.50;;
46561;SDS011;32289;42.688;23.330;2024-02-26T13:42:09;9.95;;;2.45;;
46561;SDS011;32289;42.688;23.330;2024-02-26T13:45:51;8.30;;;2.85;;
46561;SDS011;32289;42.688;23.330;2024-02-26T13:49:32;7.63;;;3.17;;
46561;SDS011;32289;42.688;23.330;2024-02-26T13:53:13;7.28;;;2.92;;
46561;SDS011;32289;42.688;23.330;2024-02-26T13:56:54;7.72;;;2.47;;
46561;SDS011;32289;42.688;23.330;2024-02-26T14:00:34;6.40;;;2.30;;
46561;SDS011;32289;42.688;23.330;2024-02-26T14:04:15;5.05;;;2.28;;
46561;SDS011;32289;42.688;23.330;2024-02-26T14:07:56;4.38;;;2.15;;
46561;SDS011;32289;42.688;23.330;2024-02-26T14:11:37;4.32;;;2.67;;
46561;SDS011;32289;42.688;23.330;2024-02-26T14:15:19;6.32;;;2.50;;
46561;SDS011;32289;42.688;23.330;2024-02-26T14:19:00;7.22;;;2.85;;
46561;SDS011;32289;42.688;23.330;2024-02-26T14:22:42;5.60;;;2.28;;
46561;SDS011;32289;42.688;23.330;2024-02-26T14:26:23;6.20;;;2.53;;
46561;SDS011;32289;42.688;23.330;2024-02-26T14:30:04;5.28;;;2.60;;
46561;SDS011;32289;42.688;23.330;2024-02-26T14:33:45;5.72;;;2.42;;
46561;SDS011;32289;42.688;23.330;2024-02-26T14:37:26;4.20;;;2.70;;
46561;SDS011;32289;42.688;23.330;2024-02-26T14:41:07;7.93;;;2.40;;
46561;SDS011;32289;42.688;23.330;2024-02-26T14:44:47;4.30;;;2.05;;
46561;SDS011;32289;42.688;23.330;2024-02-26T14:48:28;8.68;;;2.47;;
46561;SDS011;32289;42.688;23.330;2024-02-26T14:52:10;4.28;;;2.60;;
46561;SDS011;32289;42.688;23.330;2024-02-26T14:55:50;5.35;;;2.45;;
46561;SDS011;32289;42.688;23.330;2024-02-26T14:59:32;6.03;;;2.38;;
46561;SDS011;32289;42.688;23.330;2024-02-26T15:03:13;4.45;;;2.00;;
46561;SDS011;32289;42.688;23.330;2024-02-26T15:06:54;4.28;;;2.08;;
46561;SDS011;32289;42.688;23.330;2024-02-26T15:10:35;3.38;;;1.83;;
46561;SDS011;32289;42.688;23.330;2024-02-26T15:14:16;4.90;;;2.08;;
46561;SDS011;32289;42.688;23.330;2024-02-26T15:17:57;4.10;;;2.08;;
46561;SDS011;32289;42.688;23.330;2024-02-26T15:21:44;3.90;;;1.90;;
46561;SDS011;32289;42.688;23.330;2024-02-26T15:25:26;5.25;;;2.10;;
46561;SDS011;32289;42.688;23.330;2024-02-26T15:29:08;5.32;;;2.08;;
46561;SDS011;32289;42.688;23.330;2024-02-26T15:32:51;4.13;;;1.75;;
46561;SDS011;32289;42.688;23.330;2024-02-26T15:36:33;10.23;;;2.97;;
46561;SDS011;32289;42.688;23.330;2024-02-26T15:40:14;7.65;;;2.33;;
46561;SDS011;32289;42.688;23.330;2024-02-26T15:43:56;5.30;;;2.58;;
46561;SDS011;32289;42.688;23.330;2024-02-26T15:47:36;5.40;;;2.13;;
46561;SDS011;32289;42.688;23.330;2024-02-26T15:51:18;4.30;;;2.17;;
46561;SDS011;32289;42.688;23.330;2024-02-26T15:55:00;4.55;;;1.73;;
46561;SDS011;32289;42.688;23.330;2024-02-26T15:58:41;7.57;;;2.78;;
46561;SDS011;32289;42.688;23.330;2024-02-26T16:02:21;4.70;;;2.45;;
46561;SDS011;32289;42.688;23.330;2024-02-26T16:06:02;4.25;;;1.92;;
46561;SDS011;32289;42.688;23.330;2024-02-26T16:09:43;4.72;;;2.30;;
46561;SDS011;32289;42.688;23.330;2024-02-26T16:13:24;3.80;;;2.10;;
46561;SDS011;32289;42.688;23.330;2024-02-26T16:20:56;6.13;;;1.80;;
46561;SDS011;32289;42.688;23.330;2024-02-26T16:24:37;10.45;;;2.42;;
46561;SDS011;32289;42.688;23.330;2024-02-26T16:28:18;6.63;;;2.60;;
46561;SDS011;32289;42.688;23.330;2024-02-26T16:32:01;4.60;;;2.40;;
46561;SDS011;32289;42.688;23.330;2024-02-26T16:35:43;9.25;;;2.15;;
46561;SDS011;32289;42.688;23.330;2024-02-26T16:39:25;11.98;;;2.50;;
46561;SDS011;32289;42.688;23.330;2024-02-26T16:43:06;8.52;;;2.85;;
46561;SDS011;32289;42.688;23.330;2024-02-26T16:46:46;7.10;;;3.22;;
46561;SDS011;32289;42.688;23.330;2024-02-26T16:50:27;5.45;;;2.45;;
46561;SDS011;32289;42.688;23.330;2024-02-26T16:54:08;3.90;;;2.20;;
46561;SDS011;32289;42.688;23.330;2024-02-26T16:57:49;5.72;;;2.83;;
46561;SDS011;32289;42.688;23.330;2024-02-26T17:01:29;5.95;;;2.67;;
46561;SDS011;32289;42.688;23.330;2024-02-26T17:05:10;5.50;;;2.50;;
46561;SDS011;32289;42.688;23.330;2024-02-26T17:08:53;10.88;;;2.85;;
46561;SDS011;32289;42.688;23.330;2024-02-26T17:12:34;6.20;;;2.47;;
46561;SDS011;32289;42.688;23.330;2024-02-26T17:16:14;6.93;;;2.67;;
46561;SDS011;32289;42.688;23.330;2024-02-26T17:19:55;8.43;;;2.13;;
46561;SDS011;32289;42.688;23.330;2024-02-26T17:23:37;5.38;;;2.50;;
46561;SDS011;32289;42.688;23.330;2024-02-26T17:27:18;8.65;;;2.83;;
46561;SDS011;32289;42.688;23.330;2024-02-26T17:30:59;5.88;;;2.95;;
46561;SDS011;32289;42.688;23.330;2024-02-26T17:34:39;8.43;;;2.97;;
46561;SDS011;32289;42.688;23.330;2024-02-26T17:38:21;6.47;;;2.30;;
46561;SDS011;32289;42.688;23.330;2024-02-26T17:42:02;4.28;;;2.65;;
46561;SDS011;32289;42.688;23.330;2024-02-26T17:45:43;9.68;;;2.88;;
46561;SDS011;32289;42.688;23.330;2024-02-26T17:49:25;10.38;;;3.20;;
46561;SDS011;32289;42.688;23.330;2024-02-26T17:53:07;10.93;;;4.20;;
46561;SDS011;32289;42.688;23.330;2024-02-26T17:56:52;7.28;;;3.28;;
46561;SDS011;32289;42.688;23.330;2024-02-26T18:00:34;11.23;;;3.60;;
46561;SDS011;32289;42.688;23.330;2024-02-26T18:04:16;10.38;;;3.25;;
46561;SDS011;32289;42.688;23.330;2024-02-26T18:07:57;8.32;;;3.08;;
46561;SDS011;32289;42.688;23.330;2024-02-26T18:11:38;13.10;;;3.50;;
46561;SDS011;32289;42.688;23.330;2024-02-26T18:15:19;7.85;;;3.75;;
46561;SDS011;32289;42.688;23.330;2024-02-26T18:18:59;7.22;;;3.30;;
46561;SDS011;32289;42.688;23.330;2024-02-26T18:22:40;9.27;;;3.42;;
46561;SDS011;32289;42.688;23.330;2024-02-26T18:26:21;11.85;;;3.97;;
46561;SDS011;32289;42.688;23.330;2024-02-26T18:30:01;9.48;;;4.00;;
46561;SDS011;32289;42.688;23.330;2024-02-26T18:33:42;11.85;;;4.90;;
46561;SDS011;32289;42.688;23.330;2024-02-26T18:37:23;12.98;;;5.50;;
46561;SDS011;32289;42.688;23.330;2024-02-26T18:41:04;10.52;;;5.30;;
46561;SDS011;32289;42.688;23.330;2024-02-26T18:44:45;13.80;;;6.45;;
46561;SDS011;32289;42.688;23.330;2024-02-26T18:48:25;16.02;;;6.53;;
46561;SDS011;32289;42.688;23.330;2024-02-26T18:52:06;16.17;;;6.20;;
46561;SDS011;32289;42.688;23.330;2024-02-26T18:55:47;11.73;;;5.47;;
46561;SDS011;32289;42.688;23.330;2024-02-26T18:59:27;13.07;;;5.28;;
46561;SDS011;32289;42.688;23.330;2024-02-26T19:03:08;11.93;;;5.47;;
46561;SDS011;32289;42.688;23.330;2024-02-26T19:06:49;11.55;;;4.80;;
46561;SDS011;32289;42.688;23.330;2024-02-26T19:10:30;13.23;;;5.40;;
46561;SDS011;32289;42.688;23.330;2024-02-26T19:14:11;10.45;;;4.57;;
46561;SDS011;32289;42.688;23.330;2024-02-26T19:17:51;9.50;;;5.07;;
46561;SDS011;32289;42.688;23.330;2024-02-26T19:21:32;14.43;;;5.10;;
46561;SDS011;32289;42.688;23.330;2024-02-26T19:25:13;7.25;;;3.97;;
46561;SDS011;32289;42.688;23.330;2024-02-26T19:28:54;10.00;;;4.70;;
46561;SDS011;32289;42.688;23.330;2024-02-26T19:32:35;10.73;;;5.15;;
46561;SDS011;32289;42.688;23.330;2024-02-26T19:36:15;10.80;;;4.45;;
46561;SDS011;32289;42.688;23.330;2024-02-26T19:39:56;8.95;;;4.00;;
46561;SDS011;32289;42.688;23.330;2024-02-26T19:43:39;8.80;;;4.75;;
46561;SDS011;32289;42.688;23.330;2024-02-26T19:47:20;9.23;;;5.30;;
46561;SDS011;32289;42.688;23.330;2024-02-26T19:51:01;10.95;;;4.70;;
46561;SDS011;32289;42.688;23.330;2024-02-26T19:54:42;11.45;;;5.10;;
46561;SDS011;32289;42.688;23.330;2024-02-26T19:58:23;8.10;;;4.38;;
46561;SDS011;32289;42.688;23.330;2024-02-26T20:02:04;11.32;;;5.18;;
46561;SDS011;32289;42.688;23.330;2024-02-26T20:05:46;7.60;;;4.63;;
46561;SDS011;32289;42.688;23.330;2024-02-26T20:09:28;11.43;;;4.85;;
46561;SDS011;32289;42.688;23.330;2024-02-26T20:13:10;12.13;;;5.35;;
46561;SDS011;32289;42.688;23.330;2024-02-26T20:16:51;9.93;;;4.32;;
46561;SDS011;32289;42.688;23.330;2024-02-26T20:20:33;11.55;;;5.05;;
46561;SDS011;32289;42.688;23.330;2024-02-26T20:24:14;13.55;;;5.35;;
46561;SDS011;32289;42.688;23.330;2024-02-26T20:27:54;12.00;;;4.68;;
46561;SDS011;32289;42.688;23.330;2024-02-26T20:31:35;12.32;;;5.03;;
46561;SDS011;32289;42.688;23.330;2024-02-26T20:35:16;9.98;;;4.03;;
46561;SDS011;32289;42.688;23.330;2024-02-26T20:38:56;11.90;;;4.97;;
46561;SDS011;32289;42.688;23.330;2024-02-26T20:42:38;8.80;;;4.50;;
46561;SDS011;32289;42.688;23.330;2024-02-26T20:46:19;10.45;;;4.40;;
46561;SDS011;32289;42.688;23.330;2024-02-26T20:50:00;8.98;;;4.22;;
46561;SDS011;32289;42.688;23.330;2024-02-26T20:53:44;8.43;;;4.30;;
46561;SDS011;32289;42.688;23.330;2024-02-26T20:57:25;10.15;;;5.10;;
46561;SDS011;32289;42.688;23.330;2024-02-26T21:01:06;11.52;;;5.43;;
46561;SDS011;32289;42.688;23.330;2024-02-26T21:04:47;8.90;;;5.20;;
46561;SDS011;32289;42.688;23.330;2024-02-26T21:08:28;8.90;;;4.95;;
46561;SDS011;32289;42.688;23.330;2024-02-26T21:12:09;12.80;;;5.80;;
46561;SDS011;32289;42.688;23.330;2024-02-26T21:15:51;12.98;;;5.75;;
46561;SDS011;32289;42.688;23.330;2024-02-26T21:19:31;14.05;;;5.72;;
46561;SDS011;32289;42.688;23.330;2024-02-26T21:23:12;13.57;;;6.03;;
46561;SDS011;32289;42.688;23.330;2024-02-26T21:26:53;12.30;;;6.25;;
46561;SDS011;32289;42.688;23.330;2024-02-26T21:30:33;11.52;;;6.00;;
46561;SDS011;32289;42.688;23.330;2024-02-26T21:34:14;14.10;;;7.20;;
46561;SDS011;32289;42.688;23.330;2024-02-26T21:37:55;20.17;;;6.90;;
46561;SDS011;32289;42.688;23.330;2024-02-26T21:41:35;13.93;;;6.95;;
46561;SDS011;32289;42.688;23.330;2024-02-26T21:45:17;24.30;;;7.45;;
46561;SDS011;32289;42.688;23.330;2024-02-26T21:49:00;13.23;;;7.30;;
46561;SDS011;32289;42.688;23.330;2024-02-26T21:52:41;12.93;;;6.68;;
46561;SDS011;32289;42.688;23.330;2024-02-26T21:56:22;13.95;;;7.43;;